createdAt,value
2022-09-02T00:01:02.724Z,100152.30
2022-09-02T00:02:04.983Z,100155.00
2022-09-02T00:03:07.443Z,100159.39
2022-09-02T00:04:13.081Z,100153.31
2022-09-02T00:05:17.372Z,100159.39
2022-09-02T00:06:20.558Z,100154.17
2022-09-02T00:07:22.603Z,100158.53
2022-09-02T00:08:24.842Z,100156.09
2022-09-02T00:09:27.453Z,100156.09
2022-09-02T00:10:30.838Z,100151.70
2022-09-02T00:11:34.538Z,100149.95
2022-09-02T00:12:37.205Z,100158.70
2022-09-02T00:13:39.440Z,100157.84
2022-09-02T00:14:43.570Z,100159.53
2022-09-02T00:15:47.059Z,100161.37
2022-09-02T00:16:49.445Z,100160.53
2022-09-02T00:17:51.741Z,100156.31
2022-09-02T00:18:54.146Z,100158.92
2022-09-02T00:19:56.379Z,100158.05
2022-09-02T00:20:58.970Z,100160.67
2022-09-02T00:22:02.883Z,100167.59
2022-09-02T00:23:06.815Z,100162.53
2022-09-02T00:24:09.635Z,100166.06
2022-09-02T00:25:12.193Z,100172.12
2022-09-02T00:26:14.888Z,100163.53
2022-09-02T00:27:17.072Z,100164.37
2022-09-02T00:28:20.276Z,100166.14
2022-09-02T00:29:23.498Z,100169.59
2022-09-02T00:30:26.836Z,100167.06
2022-09-02T00:31:29.116Z,100169.59
2022-09-02T00:32:31.543Z,100171.42
2022-09-02T00:33:33.931Z,100170.59
2022-09-02T00:34:36.637Z,100161.05
2022-09-02T00:35:39.048Z,100166.36
2022-09-02T00:36:41.301Z,100165.50
2022-09-02T00:37:43.425Z,100172.42
2022-09-02T00:38:46.472Z,100170.89
2022-09-02T00:39:48.577Z,100165.66
2022-09-02T00:40:50.843Z,100173.42
2022-09-02T00:41:53.304Z,100170.11
2022-09-02T00:42:57.243Z,100170.19
2022-09-02T00:44:03.286Z,100171.88
2022-09-02T00:45:07.868Z,100173.72
2022-09-02T00:46:13.183Z,100177.24
2022-09-02T00:47:15.841Z,100172.10
2022-09-02T00:48:18.422Z,100169.58
2022-09-02T00:49:27.101Z,100179.23
2022-09-02T00:50:33.145Z,100174.14
2022-09-02T00:51:54.565Z,100179.37
2022-09-02T00:53:00.313Z,100181.23
2022-09-02T00:54:03.956Z,100179.66
2022-09-02T00:55:12.489Z,100187.66
2022-09-02T00:56:23.255Z,100189.41
2022-09-02T00:57:28.993Z,100183.35
2022-09-02T00:58:34.560Z,100188.70
2022-09-02T00:59:57.095Z,100192.38
2022-09-02T01:01:00.411Z,100185.47
2022-09-02T01:02:02.742Z,100187.25
2022-09-02T01:03:09.427Z,100195.91
2022-09-02T01:04:12.205Z,100194.21
2022-09-02T01:05:18.456Z,100189.91
2022-09-02T01:06:24.121Z,100193.42
2022-09-02T01:07:29.699Z,100195.20
2022-09-02T01:08:37.075Z,100190.06
2022-09-02T01:09:39.603Z,100194.37
2022-09-02T01:10:42.838Z,100194.37
2022-09-02T01:11:48.123Z,100193.67
2022-09-02T01:12:59.154Z,100194.58
2022-09-02T01:14:01.487Z,100192.87
2022-09-02T01:15:06.223Z,100198.09
2022-09-02T01:16:18.528Z,100195.48
2022-09-02T01:17:21.691Z,100199.87
2022-09-02T01:18:26.792Z,100199.02
2022-09-02T01:19:38.136Z,100192.09
2022-09-02T01:20:40.441Z,100194.78
2022-09-02T01:21:48.410Z,100195.70
2022-09-02T01:22:51.871Z,100200.91
2022-09-02T01:23:56.163Z,100199.17
2022-09-02T01:25:01.965Z,100202.61
2022-09-02T01:26:04.508Z,100199.17
2022-09-02T01:27:06.703Z,100209.61
2022-09-02T01:28:14.259Z,100207.05
2022-09-02T01:29:16.453Z,100202.69
2022-09-02T01:30:24.074Z,100208.75
2022-09-02T01:31:26.323Z,100212.27
2022-09-02T01:32:29.296Z,100217.48
2022-09-02T01:33:31.796Z,100212.27
2022-09-02T01:34:34.288Z,100212.27
2022-09-02T01:35:38.524Z,100215.73
2022-09-02T01:36:42.079Z,100213.96
2022-09-02T01:37:55.702Z,100213.13
2022-09-02T01:38:50.068Z,100217.44
2022-09-02T01:39:53.597Z,100220.88
2022-09-02T01:40:56.613Z,100216.49
2022-09-02T01:41:59.457Z,100212.27
2022-09-02T01:43:06.897Z,100220.09
2022-09-02T01:44:09.481Z,100221.95
2022-09-02T01:45:12.237Z,100222.20
2022-09-02T01:46:16.408Z,100221.52
2022-09-02T01:47:22.476Z,100225.52
2022-09-02T01:48:25.342Z,100225.52
2022-09-02T01:49:27.755Z,100235.95
2022-09-02T01:50:31.358Z,100226.63
2022-09-02T01:51:33.812Z,100227.81
2022-09-02T01:52:36.331Z,100221.09
2022-09-02T01:53:38.491Z,100226.46
2022-09-02T01:54:41.510Z,100225.91
2022-09-02T01:55:44.372Z,100231.31
2022-09-02T01:56:46.958Z,100228.90
2022-09-02T01:57:49.005Z,100230.86
2022-09-02T01:58:51.072Z,100228.52
2022-09-02T01:59:56.364Z,100229.04
2022-09-02T02:00:58.659Z,100231.77
2022-09-02T02:02:04.075Z,100236.14
2022-09-02T02:03:07.752Z,100233.45
2022-09-02T02:04:13.322Z,100239.84
2022-09-02T02:05:15.569Z,100239.08
2022-09-02T02:06:18.776Z,100241.14
2022-09-02T02:07:23.768Z,100243.86
2022-09-02T02:08:26.463Z,100244.76
2022-09-02T02:09:28.629Z,100248.52
2022-09-02T02:10:32.785Z,100251.69
2022-09-02T02:11:36.029Z,100256.03
2022-09-02T02:12:39.816Z,100248.53
2022-09-02T02:13:42.110Z,100252.10
2022-09-02T02:14:45.310Z,100252.10
2022-09-02T02:15:47.517Z,100252.27
2022-09-02T02:16:50.858Z,100252.14
2022-09-02T02:17:53.209Z,100252.14
2022-09-02T02:18:55.556Z,100257.47
2022-09-02T02:19:57.724Z,100249.50
2022-09-02T02:21:00.271Z,100255.30
2022-09-02T02:22:03.455Z,100258.59
2022-09-02T02:23:06.317Z,100261.86
2022-09-02T02:24:09.126Z,100251.31
2022-09-02T02:25:12.816Z,100260.03
2022-09-02T02:26:17.308Z,100256.66
2022-09-02T02:27:20.061Z,100250.55
2022-09-02T02:28:22.359Z,100256.66
2022-09-02T02:29:24.982Z,100246.97
2022-09-02T02:30:27.635Z,100253.67
2022-09-02T02:31:30.153Z,100251.80
2022-09-02T02:32:32.737Z,100254.36
2022-09-02T02:33:36.245Z,100264.53
2022-09-02T02:34:39.335Z,100264.53
2022-09-02T02:35:42.636Z,100255.67
2022-09-02T02:36:45.359Z,100252.97
2022-09-02T02:37:48.106Z,100254.52
2022-09-02T02:38:50.260Z,100258.65
2022-09-02T02:39:52.987Z,100255.97
2022-09-02T02:40:56.897Z,100250.66
2022-09-02T02:42:00.001Z,100254.02
2022-09-02T02:43:02.152Z,100253.12
2022-09-02T02:44:04.728Z,100251.38
2022-09-02T02:45:09.141Z,100256.52
2022-09-02T02:46:13.796Z,100255.72
2022-09-02T02:47:16.824Z,100253.98
2022-09-02T02:48:19.517Z,100254.70
2022-09-02T02:49:21.686Z,100251.16
2022-09-02T02:50:24.819Z,100255.47
2022-09-02T02:51:27.737Z,100258.22
2022-09-02T02:52:30.893Z,100254.92
2022-09-02T02:53:33.330Z,100254.02
2022-09-02T02:54:35.676Z,100253.38
2022-09-02T02:55:38.327Z,100259.55
2022-09-02T02:56:41.266Z,100255.81
2022-09-02T02:57:43.950Z,100263.32
2022-09-02T02:58:46.196Z,100266.03
2022-09-02T02:59:48.884Z,100257.66
2022-09-02T03:00:51.633Z,100261.06
2022-09-02T03:01:54.923Z,100255.20
2022-09-02T03:02:59.495Z,100267.31
2022-09-02T03:04:02.369Z,100266.20
2022-09-02T03:05:06.761Z,100268.39
2022-09-02T03:06:09.738Z,100268.15
2022-09-02T03:07:11.888Z,100269.60
2022-09-02T03:08:14.748Z,100263.24
2022-09-02T03:09:17.828Z,100269.14
2022-09-02T03:10:21.030Z,100264.63
2022-09-02T03:11:24.065Z,100272.26
2022-09-02T03:12:26.235Z,100260.75
2022-09-02T03:13:29.463Z,100270.20
2022-09-02T03:14:32.318Z,100268.38
2022-09-02T03:15:35.776Z,100273.45
2022-09-02T03:16:38.157Z,100268.13
2022-09-02T03:17:40.217Z,100264.62
2022-09-02T03:18:42.183Z,100264.73
2022-09-02T03:19:44.532Z,100275.41
2022-09-02T03:20:46.978Z,100273.59
2022-09-02T03:21:49.155Z,100269.83
2022-09-02T03:22:54.601Z,100274.97
2022-09-02T03:23:58.296Z,100273.34
2022-09-02T03:25:00.984Z,100273.20
2022-09-02T03:26:12.085Z,100271.53
2022-09-02T03:27:14.270Z,100273.20
2022-09-02T03:28:16.710Z,100280.11
2022-09-02T03:29:18.957Z,100280.00
2022-09-02T03:30:24.975Z,100278.19
2022-09-02T03:31:27.550Z,100284.95
2022-09-02T03:32:30.612Z,100288.39
2022-09-02T03:33:33.799Z,100288.35
2022-09-02T03:34:36.392Z,100288.20
2022-09-02T03:35:41.428Z,100291.61
2022-09-02T03:36:44.363Z,100291.61
2022-09-02T03:37:51.370Z,100293.34
2022-09-02T03:38:54.315Z,100295.01
2022-09-02T03:39:57.121Z,100293.49
2022-09-02T03:40:59.485Z,100299.26
2022-09-02T03:42:02.213Z,100301.35
2022-09-02T03:43:06.554Z,100297.84
2022-09-02T03:44:10.016Z,100303.16
2022-09-02T03:45:14.312Z,100296.25
2022-09-02T03:46:18.789Z,100313.34
2022-09-02T03:47:21.917Z,100313.41
2022-09-02T03:48:26.470Z,100309.59
2022-09-02T03:49:28.626Z,100311.41
2022-09-02T03:50:34.825Z,100321.17
2022-09-02T03:51:42.970Z,100321.17
2022-09-02T03:52:45.556Z,100316.44
2022-09-02T03:53:47.808Z,100318.69
2022-09-02T03:54:50.555Z,100318.44
2022-09-02T03:55:53.301Z,100328.61
2022-09-02T03:56:55.947Z,100325.14
2022-09-02T03:57:58.901Z,100324.13
2022-09-02T03:59:01.528Z,100328.22
2022-09-02T04:00:08.773Z,100315.86
2022-09-02T04:01:19.656Z,100327.02
2022-09-02T04:02:22.185Z,100329.55
2022-09-02T04:03:25.053Z,100329.80
2022-09-02T04:04:27.560Z,100321.84
2022-09-02T04:05:30.022Z,100332.98
2022-09-02T04:06:33.660Z,100329.41
2022-09-02T04:07:37.331Z,100331.97
2022-09-02T04:08:40.612Z,100326.54
2022-09-02T04:09:46.623Z,100329.97
2022-09-02T04:10:47.474Z,100335.11
2022-09-02T04:11:49.708Z,100331.10
2022-09-02T04:12:52.438Z,100332.80
2022-09-02T04:13:54.882Z,100330.98
2022-09-02T04:14:58.765Z,100340.40
2022-09-02T04:16:07.451Z,100335.98
2022-09-02T04:17:12.116Z,100338.66
2022-09-02T04:18:16.259Z,100343.80
2022-09-02T04:19:19.451Z,100349.81
2022-09-02T04:20:23.120Z,100341.84
2022-09-02T04:21:26.295Z,100350.31
2022-09-02T04:22:28.440Z,100349.29
2022-09-02T04:23:31.176Z,100344.83
2022-09-02T04:24:33.820Z,100343.81
2022-09-02T04:25:38.845Z,100341.99
2022-09-02T04:26:44.892Z,100345.25
2022-09-02T04:27:45.926Z,100349.55
2022-09-02T04:28:48.981Z,100353.86
2022-09-02T04:29:52.189Z,100344.45
2022-09-02T04:30:54.982Z,100347.21
2022-09-02T04:31:57.358Z,100354.05
2022-09-02T04:32:59.427Z,100352.16
2022-09-02T04:34:01.963Z,100348.57
2022-09-02T04:35:04.953Z,100350.31
2022-09-02T04:36:10.151Z,100344.98
2022-09-02T04:37:14.722Z,100353.59
2022-09-02T04:38:17.750Z,100349.93
2022-09-02T04:39:20.237Z,100348.23
2022-09-02T04:40:24.384Z,100352.34
2022-09-02T04:41:29.612Z,100356.50
2022-09-02T04:42:33.912Z,100353.70
2022-09-02T04:43:36.714Z,100355.32
2022-09-02T04:44:39.290Z,100352.59
2022-09-02T04:45:44.856Z,100356.03
2022-09-02T04:46:48.453Z,100352.79
2022-09-02T04:47:53.371Z,100353.62
2022-09-02T04:48:55.718Z,100363.62
2022-09-02T04:49:58.233Z,100357.69
2022-09-02T04:51:05.643Z,100365.70
2022-09-02T04:52:08.444Z,100363.36
2022-09-02T04:53:11.477Z,100368.45
2022-09-02T04:54:14.438Z,100360.48
2022-09-02T04:55:18.187Z,100360.48
2022-09-02T04:56:25.061Z,100362.19
2022-09-02T04:57:27.363Z,100363.88
2022-09-02T04:58:30.990Z,100364.60
2022-09-02T04:59:33.099Z,100368.98
2022-09-02T05:00:39.199Z,100366.42
2022-09-02T05:01:43.973Z,100370.53
2022-09-02T05:02:50.084Z,100361.67
2022-09-02T05:03:53.609Z,100362.31
2022-09-02T05:04:56.059Z,100361.17
2022-09-02T05:06:03.075Z,100370.27
2022-09-02T05:07:05.272Z,100371.84
2022-09-02T05:08:09.722Z,100363.94
2022-09-02T05:09:12.068Z,100365.69
2022-09-02T05:10:16.494Z,100361.41
2022-09-02T05:11:22.169Z,100369.80
2022-09-02T05:12:25.062Z,100372.14
2022-09-02T05:13:29.112Z,100374.47
2022-09-02T05:14:32.310Z,100373.28
2022-09-02T05:15:39.736Z,100372.88
2022-09-02T05:16:43.178Z,100375.30
2022-09-02T05:17:47.571Z,100372.40
2022-09-02T05:18:53.674Z,100370.50
2022-09-02T05:19:57.565Z,100376.84
2022-09-02T05:21:02.236Z,100373.59
2022-09-02T05:22:05.434Z,100372.48
2022-09-02T05:23:12.402Z,100372.20
2022-09-02T05:24:22.148Z,100375.44
2022-09-02T05:25:24.562Z,100367.39
2022-09-02T05:26:27.588Z,100370.63
2022-09-02T05:27:29.971Z,100374.94
2022-09-02T05:28:33.771Z,100370.50
2022-09-02T05:29:36.708Z,100375.86
2022-09-02T05:30:41.718Z,100379.83
2022-09-02T05:31:44.583Z,100378.17
2022-09-02T05:32:48.242Z,100387.16
2022-09-02T05:33:51.418Z,100383.25
2022-09-02T05:34:55.402Z,100385.86
2022-09-02T05:35:58.087Z,100383.13
2022-09-02T05:37:00.602Z,100383.88
2022-09-02T05:38:04.221Z,100382.50
2022-09-02T05:39:06.661Z,100384.88
2022-09-02T05:40:11.479Z,100386.02
2022-09-02T05:41:20.408Z,100385.23
2022-09-02T05:42:22.766Z,100385.86
2022-09-02T05:43:26.598Z,100391.88
2022-09-02T05:44:29.782Z,100391.88
2022-09-02T05:45:32.796Z,100392.78
2022-09-02T05:46:36.304Z,100392.78
2022-09-02T05:47:38.716Z,100388.70
2022-09-02T05:48:41.556Z,100388.70
2022-09-02T05:49:44.043Z,100388.70
2022-09-02T05:50:57.287Z,100389.41
2022-09-02T05:51:57.795Z,100383.06
2022-09-02T05:53:02.902Z,100393.52
2022-09-02T05:54:05.246Z,100389.83
2022-09-02T05:55:09.158Z,100393.07
2022-09-02T05:56:13.696Z,100392.95
2022-09-02T05:57:18.247Z,100386.73
2022-09-02T05:58:22.338Z,100398.17
2022-09-02T05:59:26.508Z,100398.95
2022-09-02T06:00:31.430Z,100402.27
2022-09-02T06:01:36.688Z,100389.70
2022-09-02T06:02:39.018Z,100401.73
2022-09-02T06:03:41.939Z,100392.27
2022-09-02T06:04:47.362Z,100392.89
2022-09-02T06:06:01.702Z,100394.43
2022-09-02T06:07:02.225Z,100390.12
2022-09-02T06:08:04.136Z,100401.14
2022-09-02T06:09:07.531Z,100386.94
2022-09-02T06:10:10.155Z,100389.09
2022-09-02T06:11:13.224Z,100390.70
2022-09-02T06:12:18.602Z,100394.11
2022-09-02T06:13:21.138Z,100397.59
2022-09-02T06:14:25.945Z,100395.59
2022-09-02T06:15:28.541Z,100397.42
2022-09-02T06:16:31.091Z,100395.59
2022-09-02T06:17:34.818Z,100401.59
2022-09-02T06:18:38.188Z,100397.81
2022-09-02T06:19:42.312Z,100395.42
2022-09-02T06:20:47.373Z,100393.59
2022-09-02T06:21:49.996Z,100391.75
2022-09-02T06:22:53.569Z,100399.21
2022-09-02T06:23:56.033Z,100395.45
2022-09-02T06:24:58.262Z,100397.29
2022-09-02T06:26:01.491Z,100409.89
2022-09-02T06:27:04.809Z,100408.50
2022-09-02T06:28:08.014Z,100398.98
2022-09-02T06:29:13.004Z,100398.98
2022-09-02T06:30:15.671Z,100406.75
2022-09-02T06:31:22.293Z,100410.67
2022-09-02T06:32:25.041Z,100405.61
2022-09-02T06:33:29.067Z,100409.63
2022-09-02T06:34:31.547Z,100407.30
2022-09-02T06:35:37.081Z,100410.84
2022-09-02T06:36:41.277Z,100411.78
2022-09-02T06:37:44.215Z,100412.70
2022-09-02T06:38:49.565Z,100412.53
2022-09-02T06:39:51.897Z,100416.16
2022-09-02T06:40:57.693Z,100416.55
2022-09-02T06:42:04.373Z,100416.38
2022-09-02T06:43:08.397Z,100408.48
2022-09-02T06:44:15.160Z,100403.94
2022-09-02T06:45:18.773Z,100405.77
2022-09-02T06:46:24.705Z,100413.40
2022-09-02T06:47:28.948Z,100406.16
2022-09-02T06:48:31.655Z,100410.52
2022-09-02T06:49:33.902Z,100412.22
2022-09-02T06:50:41.863Z,100406.30
2022-09-02T06:51:48.141Z,100410.38
2022-09-02T06:52:50.940Z,100415.39
2022-09-02T06:53:53.850Z,100420.54
2022-09-02T06:54:56.826Z,100416.54
2022-09-02T06:55:58.925Z,100417.63
2022-09-02T06:57:02.110Z,100413.23
2022-09-02T06:58:05.258Z,100411.30
2022-09-02T06:59:08.204Z,100409.23
2022-09-02T07:00:19.640Z,100419.39
2022-09-02T07:01:25.422Z,100420.08
2022-09-02T07:02:29.054Z,100420.59
2022-09-02T07:03:31.290Z,100425.00
2022-09-02T07:04:35.779Z,100427.70
2022-09-02T07:05:39.699Z,100421.61
2022-09-02T07:06:48.127Z,100416.97
2022-09-02T07:07:51.626Z,100422.30
2022-09-02T07:08:53.714Z,100421.28
2022-09-02T07:09:57.750Z,100425.00
2022-09-02T07:11:01.596Z,100427.53
2022-09-02T07:12:05.969Z,100431.02
2022-09-02T07:13:10.055Z,100428.39
2022-09-02T07:14:12.821Z,100426.52
2022-09-02T07:15:15.362Z,100433.34
2022-09-02T07:16:22.755Z,100436.56
2022-09-02T07:17:23.901Z,100431.92
2022-09-02T07:18:28.836Z,100437.94
2022-09-02T07:19:31.397Z,100438.63
2022-09-02T07:20:34.166Z,100429.22
2022-09-02T07:21:42.168Z,100434.08
2022-09-02T07:22:45.003Z,100433.58
2022-09-02T07:23:49.071Z,100434.02
2022-09-02T07:24:53.676Z,100453.64
2022-09-02T07:25:56.118Z,100436.87
2022-09-02T07:26:58.416Z,100436.87
2022-09-02T07:28:01.557Z,100430.80
2022-09-02T07:29:07.900Z,100434.80
2022-09-02T07:30:11.932Z,100435.98
2022-09-02T07:31:16.343Z,100438.12
2022-09-02T07:32:18.807Z,100435.01
2022-09-02T07:33:22.600Z,100434.67
2022-09-02T07:34:25.548Z,100442.35
2022-09-02T07:35:29.743Z,100435.34
2022-09-02T07:36:34.740Z,100435.34
2022-09-02T07:37:38.076Z,100440.16
2022-09-02T07:38:42.531Z,100443.80
2022-09-02T07:39:44.659Z,100439.48
2022-09-02T07:40:48.019Z,100434.67
2022-09-02T07:41:51.979Z,100447.94
2022-09-02T07:42:58.647Z,100439.91
2022-09-02T07:44:00.250Z,100436.52
2022-09-02T07:45:03.804Z,100439.73
2022-09-02T07:46:08.309Z,100449.57
2022-09-02T07:47:11.692Z,100447.88
2022-09-02T07:48:14.951Z,100443.65
2022-09-02T07:49:22.061Z,100443.55
2022-09-02T07:50:26.834Z,100442.09
2022-09-02T07:51:30.795Z,100437.28
2022-09-02T07:52:35.243Z,100433.63
2022-09-02T07:53:37.750Z,100439.74
2022-09-02T07:54:39.840Z,100434.18
2022-09-02T07:55:43.966Z,100437.57
2022-09-02T07:56:46.304Z,100441.52
2022-09-02T07:57:52.387Z,100439.88
2022-09-02T07:58:54.980Z,100434.63
2022-09-02T07:59:57.370Z,100427.92
2022-09-02T08:01:02.501Z,100425.70
2022-09-02T08:02:04.962Z,100429.83
2022-09-02T08:03:11.145Z,100424.98
2022-09-02T08:04:16.981Z,100436.55
2022-09-02T08:05:21.736Z,100429.30
2022-09-02T08:06:33.664Z,100427.77
2022-09-02T08:07:28.962Z,100436.19
2022-09-02T08:08:31.267Z,100439.24
2022-09-02T08:09:33.184Z,100428.58
2022-09-02T08:10:36.821Z,100428.94
2022-09-02T08:11:43.327Z,100426.22
2022-09-02T08:12:48.129Z,100429.63
2022-09-02T08:13:50.835Z,100424.27
2022-09-02T08:14:53.086Z,100424.39
2022-09-02T08:15:56.356Z,100431.28
2022-09-02T08:16:59.625Z,100430.52
2022-09-02T08:18:04.103Z,100431.94
2022-09-02T08:19:07.890Z,100433.11
2022-09-02T08:20:14.026Z,100439.50
2022-09-02T08:21:16.672Z,100431.41
2022-09-02T08:22:18.761Z,100424.66
2022-09-02T08:23:35.980Z,100427.58
2022-09-02T08:24:25.309Z,100427.30
2022-09-02T08:25:27.397Z,100435.19
2022-09-02T08:26:29.559Z,100426.26
2022-09-02T08:27:31.961Z,100425.42
2022-09-02T08:28:33.999Z,100428.03
2022-09-02T08:29:36.174Z,100424.15
2022-09-02T08:30:39.470Z,100429.53
2022-09-02T08:31:44.166Z,100437.24
2022-09-02T08:32:46.158Z,100433.29
2022-09-02T08:33:48.520Z,100427.08
2022-09-02T08:34:51.291Z,100430.27
2022-09-02T08:35:53.362Z,100428.77
2022-09-02T08:36:57.240Z,100426.14
2022-09-02T08:38:01.821Z,100425.02
2022-09-02T08:39:04.307Z,100434.59
2022-09-02T08:40:11.204Z,100429.30
2022-09-02T08:41:17.023Z,100425.75
2022-09-02T08:42:31.111Z,100428.64
2022-09-02T08:43:42.997Z,100422.19
2022-09-02T08:44:45.768Z,100418.60
2022-09-02T08:45:50.999Z,100425.95
2022-09-02T08:46:56.895Z,100423.39
2022-09-02T08:48:08.785Z,100426.78
2022-09-02T08:49:17.284Z,100417.67
2022-09-02T08:50:22.532Z,100422.36
2022-09-02T08:51:37.573Z,100415.77
2022-09-02T08:52:56.457Z,100415.91
2022-09-02T08:54:10.954Z,100431.66
2022-09-02T08:55:20.669Z,100427.44
2022-09-02T08:56:23.437Z,100427.37
2022-09-02T08:57:26.620Z,100423.73
2022-09-02T08:58:34.981Z,100428.23
2022-09-02T08:59:37.888Z,100422.97
2022-09-02T09:00:43.943Z,100431.42
2022-09-02T09:01:52.411Z,100424.40
2022-09-02T09:03:10.608Z,100420.77
2022-09-02T09:04:22.038Z,100420.39
2022-09-02T09:05:30.853Z,100413.05
2022-09-02T09:06:52.197Z,100414.91
2022-09-02T09:08:15.791Z,100411.44
2022-09-02T09:09:40.232Z,100417.06
2022-09-02T09:11:04.343Z,100410.95
2022-09-02T09:12:33.055Z,100412.81
2022-09-02T09:14:08.574Z,100415.55
2022-09-02T09:15:48.665Z,100408.12
2022-09-02T09:17:00.108Z,100411.33
2022-09-02T09:18:06.031Z,100411.46
2022-09-02T09:19:23.389Z,100414.16
2022-09-02T09:20:35.459Z,100426.38
2022-09-02T09:21:38.729Z,100421.48
2022-09-02T09:22:42.808Z,100415.36
2022-09-02T09:23:46.934Z,100417.53
2022-09-02T09:24:50.127Z,100418.19
2022-09-02T09:25:59.596Z,100407.38
2022-09-02T09:27:05.063Z,100407.38
2022-09-02T09:28:07.151Z,100406.07
2022-09-02T09:29:12.166Z,100413.23
2022-09-02T09:30:15.773Z,100413.71
2022-09-02T09:31:21.080Z,100407.70
2022-09-02T09:32:29.542Z,100415.89
2022-09-02T09:33:31.758Z,100412.12
2022-09-02T09:34:56.508Z,100411.56
2022-09-02T09:35:58.615Z,100414.92
2022-09-02T09:37:00.989Z,100418.14
2022-09-02T09:38:06.592Z,100417.55
2022-09-02T09:39:28.163Z,100416.97
2022-09-02T09:40:32.047Z,100412.12
2022-09-02T09:41:36.662Z,100411.56
2022-09-02T09:42:39.194Z,100406.31
2022-09-02T09:43:43.229Z,100423.47
2022-09-02T09:44:47.433Z,100404.20
2022-09-02T09:45:51.388Z,100394.25
2022-09-02T09:47:01.130Z,100391.75
2022-09-02T09:48:24.966Z,100398.97
2022-09-02T09:49:27.763Z,100403.69
2022-09-02T09:50:30.110Z,100399.05
2022-09-02T09:51:50.287Z,100403.30
2022-09-02T09:52:37.373Z,100398.50
2022-09-02T09:53:40.035Z,100410.63
2022-09-02T09:54:43.752Z,100405.92
2022-09-02T09:56:09.588Z,100393.72
2022-09-02T09:57:18.212Z,100399.24
2022-09-02T09:58:26.157Z,100407.94
2022-09-02T09:59:40.692Z,100400.31
2022-09-02T10:00:44.113Z,100407.11
2022-09-02T10:01:51.205Z,100406.90
2022-09-02T10:02:56.289Z,100404.73
2022-09-02T10:04:42.218Z,100408.09
2022-09-02T10:05:35.004Z,100411.45
2022-09-02T10:06:43.007Z,100400.09
2022-09-02T10:07:48.730Z,100401.03
2022-09-02T10:08:54.486Z,100403.27
2022-09-02T10:10:00.630Z,100402.61
2022-09-02T10:11:09.322Z,100401.14
2022-09-02T10:12:12.905Z,100404.70
2022-09-02T10:13:21.813Z,100408.34
2022-09-02T10:14:29.766Z,100409.11
2022-09-02T10:15:39.622Z,100415.52
2022-09-02T10:16:57.585Z,100407.44
2022-09-02T10:18:21.136Z,100423.59
2022-09-02T10:19:33.761Z,100422.58
2022-09-02T10:21:16.697Z,100412.59
2022-09-02T10:22:59.991Z,100403.37
2022-09-02T10:23:50.327Z,100411.27
2022-09-02T10:25:02.260Z,100412.95
2022-09-02T10:26:15.648Z,100411.30
2022-09-02T10:27:21.356Z,100411.22
2022-09-02T10:28:33.087Z,100421.03
2022-09-02T10:29:55.547Z,100402.22
2022-09-02T10:31:10.835Z,100425.14
2022-09-02T10:32:17.074Z,100416.52
2022-09-02T10:33:23.101Z,100421.82
2022-09-02T10:34:54.933Z,100415.44
2022-09-02T10:36:06.450Z,100407.94
2022-09-02T10:37:23.659Z,100412.12
2022-09-02T10:38:33.191Z,100406.80
2022-09-02T10:39:57.013Z,100417.25
2022-09-02T10:41:03.915Z,100427.08
2022-09-02T10:42:24.887Z,100412.27
2022-09-02T10:43:30.520Z,100403.62
2022-09-02T10:44:46.543Z,100415.55
2022-09-02T10:45:52.295Z,100420.05
2022-09-02T10:46:58.099Z,100417.02
2022-09-02T10:48:09.282Z,100416.80
2022-09-02T10:49:33.316Z,100392.98
2022-09-02T10:50:50.138Z,100409.92
2022-09-02T10:52:11.528Z,100412.71
2022-09-02T10:53:43.269Z,100427.97
2022-09-02T10:55:15.102Z,100407.97
2022-09-02T10:56:31.139Z,100398.98
2022-09-02T10:57:37.196Z,100405.98
2022-09-02T10:58:47.600Z,100398.80
2022-09-02T11:00:09.343Z,100391.23
2022-09-02T11:01:21.148Z,100401.77
2022-09-02T11:02:33.165Z,100396.42
2022-09-02T11:03:53.964Z,100398.64
2022-09-02T11:05:18.813Z,100404.32
2022-09-02T11:06:31.682Z,100394.84
2022-09-02T11:07:57.088Z,100400.86
2022-09-02T11:09:23.186Z,100396.45
2022-09-02T11:10:46.721Z,100398.02
2022-09-02T11:11:58.265Z,100399.08
2022-09-02T11:13:21.446Z,100402.83
2022-09-02T11:14:30.173Z,100408.96
2022-09-02T11:16:04.939Z,100406.42
2022-09-02T11:17:32.059Z,100402.12
2022-09-02T11:18:49.982Z,100396.55
2022-09-02T11:20:05.822Z,100403.27
2022-09-02T11:21:36.838Z,100392.53
2022-09-02T11:22:54.291Z,100404.32
2022-09-02T11:24:02.531Z,100407.39
2022-09-02T11:25:14.261Z,100410.03
2022-09-02T11:26:38.959Z,100415.27
2022-09-02T11:27:49.180Z,100401.38
2022-09-02T11:29:00.958Z,100404.32
2022-09-02T11:30:10.143Z,100402.12
2022-09-02T11:31:35.730Z,100394.84
2022-09-02T11:32:44.334Z,100395.88
2022-09-02T11:35:07.823Z,100392.06
2022-09-02T11:36:11.543Z,100391.62
2022-09-02T11:37:35.833Z,100395.38
2022-09-02T11:39:00.395Z,100384.91
2022-09-02T11:40:30.363Z,100387.39
2022-09-02T11:41:38.443Z,100388.22
2022-09-02T11:42:33.725Z,100380.55
2022-09-02T11:43:48.778Z,100385.91
2022-09-02T11:45:01.467Z,100383.61
2022-09-02T11:46:14.067Z,100395.64
2022-09-02T11:47:28.096Z,100386.77
2022-09-02T11:49:02.812Z,100400.30
2022-09-02T11:50:24.119Z,100409.94
2022-09-02T11:51:44.926Z,100398.40
2022-09-02T11:52:59.870Z,100411.59
2022-09-02T11:54:04.800Z,100400.54
2022-09-02T11:55:17.144Z,100400.34
2022-09-02T11:56:41.583Z,100397.75
2022-09-02T11:57:53.229Z,100393.45
2022-09-02T11:58:55.521Z,100386.95
2022-09-02T12:00:01.153Z,100386.25
2022-09-02T12:01:15.902Z,100390.66
2022-09-02T12:02:44.578Z,100381.87
2022-09-02T12:04:16.169Z,100392.41
2022-09-02T12:05:14.548Z,100381.58
2022-09-02T12:06:21.222Z,100385.96
2022-09-02T12:07:26.437Z,100380.16
2022-09-02T12:08:35.660Z,100383.14
2022-09-02T12:09:48.211Z,100387.08
2022-09-02T12:10:53.988Z,100389.55
2022-09-02T12:11:56.088Z,100381.73
2022-09-02T12:13:01.675Z,100381.84
2022-09-02T12:14:26.901Z,100371.05
2022-09-02T12:15:30.869Z,100383.26
2022-09-02T12:16:42.332Z,100382.17
2022-09-02T12:17:50.645Z,100373.84
2022-09-02T12:18:57.635Z,100389.63
2022-09-02T12:19:59.733Z,100378.74
2022-09-02T12:21:06.097Z,100381.58
2022-09-02T12:22:20.683Z,100373.70
2022-09-02T12:23:52.379Z,100379.82
2022-09-02T12:24:57.133Z,100375.94
2022-09-02T12:26:02.035Z,100378.45
2022-09-02T12:27:07.708Z,100371.73
2022-09-02T12:28:26.071Z,100377.94
2022-09-02T12:29:31.979Z,100378.45
2022-09-02T12:30:59.062Z,100374.08
2022-09-02T12:32:02.183Z,100379.44
2022-09-02T12:33:12.370Z,100371.28
2022-09-02T12:34:25.122Z,100386.64
2022-09-02T12:35:37.431Z,100375.86
2022-09-02T12:36:45.793Z,100374.75
2022-09-02T12:37:56.930Z,100388.06
2022-09-02T12:39:26.287Z,100382.25